VECC Airport Information

Runway Information
Runway 01L Length 7871 ft width 150 ft
Elevation 19 ft Threshold 0 ft Heading 6
Runway 19R Length 7871 ft Width 150 ft
Elevation 19 ft Threshold 0 ft Heading 186
Runway 01R Length 11900 ft width 150 ft
Elevation 20 ft Threshold 0 ft Heading 6
Runway 19L Length 11900 ft Width 150 ft
Elevation 19 ft Threshold 1390 ft Heading 186
Airport Frequencies
Type A/G Name KOLKATA RD Frequency 127.3 MHZ
Type ACC Name KOLKATA CO Frequency 119.3 MHZ
Type APP Name KOLKATA AP Frequency 127.9 MHZ
Type APP CONTRO Name KOLKATA CO Frequency 132.45 MHZ
Type ATIS Name ATIS Frequency 126.4 MHZ
Type GND Name KOLKATA GN Frequency 121.9 MHZ
Type RADAR Name Feeder ARE Frequency 127.3 MHZ
Type TWR Name KOLKATA TW Frequency 118.1 MHZ
Airport Navaids
Type VOR-DME Name Kolkata Frequency 112500 KHZ
Type NDB Name Kolkata Frequency 385 KHZ
Airport Weather Information & NOTAM

Deprecated: The each() function is deprecated. This message will be suppressed on further calls in /home/aerocargo/public_html/lib/functions.php on line 165
ADDS - METARS form results

(1539 UTC 20 January 2021)
Data provider http://aviationweather.gov/metar/data/
 
METAR text: VECC 201530Z 01005KT 2200 BR NSC 20/18 Q1012 NOSIG
Conditions at: VECC (CALCUTTA/DUM DUM, IN) observed 1530 UTC 20 January 2021
Temperature: 20.0°C (68°F)
Dewpoint: 18.0°C (64°F) [RH = 88%]
Pressure (altimeter): 29.88 inches Hg (1012.0 mb)
Winds: from the N (10 degrees) at 6 MPH (5 knots; 2.6 m/s)
Visibility: 1.37 miles (2.20 km)
Ceiling: at least 12,000 feet AGL
Clouds: sky clear below 12,000 feet AGL
Weather: BR  (mist)

METAR text: VECC 201500Z 01004KT 2200 BR NSC 20/17 Q1011 NOSIG
Conditions at: VECC (CALCUTTA/DUM DUM, IN) observed 1500 UTC 20 January 2021
Temperature: 20.0°C (68°F)
Dewpoint: 17.0°C (63°F) [RH = 83%]
Pressure (altimeter): 29.85 inches Hg (1011.0 mb)
Winds: from the N (10 degrees) at 5 MPH (4 knots; 2.1 m/s)
Visibility: 1.37 miles (2.20 km)
Ceiling: at least 12,000 feet AGL
Clouds: sky clear below 12,000 feet AGL
Weather: BR  (mist)

Forecast for: VECC (CALCUTTA/DUM DUM, IN)
Text: TAF VECC 201400Z 2015/2024 35005KT 2000 BR FEW100
Forecast period: 1500 to 2100 UTC 20 January 2021
Forecast type: FROM: standard forecast or significant change
Winds: from the N (350 degrees) at 6 MPH (5 knots; 2.6 m/s)
Visibility: 1.24 miles (2.00 km)
Ceiling: at least 12,000 feet AGL
Clouds: few clouds at 10000 feet AGL
Weather: BR  (mist)
Text: BECMG 2021/2023 1400 BR
Forecast period: 2100 UTC 20 January 2021 to 0000 UTC 21 January 2021
Forecast type: BECOMING: Conditions expected to become as follows by 2300 UTC 20 January 2021
Winds: from the N (350 degrees) at 6 MPH (5 knots; 2.6 m/s)
Visibility: 0.87 miles (1.40 km)
Ceiling: at least 12,000 feet AGL
Clouds: few clouds at 10000 feet AGL
Weather: BR  (mist)